Time;durP1;ratioP1;P1;durP2;ratioP2;P2;SDS_P1;SDS_P2;PMS_P1;PMS_P2;Temp;Humidity;BMP_temperature;BMP_pressure;BME280_temperature;BME280_humidity;BME280_pressure;Samples;Min_cycle;Max_cycle;Signal;HPM_P1;HPM_P2
2022/07/14 00:00:40;;;;;;;1.60;1.50;;;;;;;;;;5074929;28;20055;-84
2022/07/14 00:03:07;;;;;;;4.15;1.48;;;;;;;;;;5074776;28;20048;-84
2022/07/14 00:05:35;;;;;;;1.80;1.70;;;;;;;;;;5092044;28;20051;-84
2022/07/14 00:08:03;;;;;;;2.72;1.80;;;;;;;;;;5092645;28;20058;-84
2022/07/14 00:10:31;;;;;;;1.60;1.27;;;;;;;;;;5074701;28;20515;-84
2022/07/14 00:12:58;;;;;;;2.97;1.70;;;;;;;;;;5092805;28;20075;-84
2022/07/14 00:15:25;;;;;;;2.75;1.38;;;;;;;;;;5092419;28;20541;-84
2022/07/14 00:17:52;;;;;;;5.35;1.70;;;;;;;;;;5077256;28;20075;-84
2022/07/14 00:20:19;;;;;;;1.55;1.45;;;;;;;;;;5078358;28;20054;-84
2022/07/14 00:22:47;;;;;;;2.80;1.85;;;;;;;;;;5078514;28;20114;-84
2022/07/14 00:25:14;;;;;;;1.90;1.33;;;;;;;;;;5096691;28;20131;-84
2022/07/14 00:27:41;;;;;;;2.47;1.50;;;;;;;;;;5078664;28;20260;-84
2022/07/14 00:30:09;;;;;;;1.38;1.27;;;;;;;;;;5078513;28;20076;-85
2022/07/14 00:32:36;;;;;;;1.70;1.60;;;;;;;;;;5077991;28;20048;-84
2022/07/14 00:35:05;;;;;;;2.10;1.60;;;;;;;;;;5078083;28;20101;-84
2022/07/14 00:37:32;;;;;;;3.47;1.55;;;;;;;;;;5078481;28;20044;-84
2022/07/14 00:40:03;;;;;;;1.70;1.60;;;;;;;;;;5078196;28;20076;-84
2022/07/14 00:42:35;;;;;;;2.13;1.63;;;;;;;;;;5096176;28;20098;-84
2022/07/14 00:45:04;;;;;;;2.67;2.00;;;;;;;;;;5096088;28;20147;-84
2022/07/14 00:47:32;;;;;;;2.58;1.60;;;;;;;;;;5077810;28;20079;-84
2022/07/14 00:50:00;;;;;;;3.65;1.65;;;;;;;;;;5078138;28;20136;-84
2022/07/14 00:52:28;;;;;;;3.00;1.63;;;;;;;;;;5077975;28;20078;-83
2022/07/14 00:54:56;;;;;;;2.45;2.10;;;;;;;;;;5077606;28;20048;-84
2022/07/14 00:57:23;;;;;;;1.77;1.67;;;;;;;;;;5078069;28;20048;-84
2022/07/14 00:59:51;;;;;;;2.22;1.63;;;;;;;;;;5077663;28;20134;-84
2022/07/14 01:02:18;;;;;;;2.08;1.75;;;;;;;;;;5077717;28;20072;-84
2022/07/14 01:04:47;;;;;;;2.85;1.52;;;;;;;;;;5095601;28;20051;-83
2022/07/14 01:07:15;;;;;;;3.75;1.70;;;;;;;;;;5077646;28;20048;-84
2022/07/14 01:09:44;;;;;;;2.28;1.40;;;;;;;;;;5077808;28;20554;-84
2022/07/14 01:12:12;;;;;;;1.83;1.67;;;;;;;;;;5077446;28;20492;-84
2022/07/14 01:14:41;;;;;;;2.10;1.88;;;;;;;;;;5077129;28;20463;-84
2022/07/14 01:17:08;;;;;;;3.03;1.90;;;;;;;;;;5077546;28;20069;-84
2022/07/14 01:19:36;;;;;;;3.90;1.73;;;;;;;;;;5077677;28;20080;-84
2022/07/14 01:22:03;;;;;;;4.20;1.60;;;;;;;;;;5077500;28;20094;-84
2022/07/14 01:24:31;;;;;;;2.00;1.80;;;;;;;;;;5077339;28;20086;-84
2022/07/14 01:26:58;;;;;;;1.70;1.60;;;;;;;;;;5077300;28;20540;-83
2022/07/14 01:29:26;;;;;;;2.85;1.70;;;;;;;;;;5076376;28;20054;-84
2022/07/14 01:31:54;;;;;;;1.90;1.80;;;;;;;;;;5095037;28;20549;-84
2022/07/14 01:34:21;;;;;;;3.35;1.67;;;;;;;;;;5076983;28;20123;-84
2022/07/14 01:36:52;;;;;;;3.85;1.50;;;;;;;;;;5077191;28;20095;-84
2022/07/14 01:39:20;;;;;;;1.50;1.40;;;;;;;;;;5077035;28;20048;-83
2022/07/14 01:41:47;;;;;;;3.60;1.70;;;;;;;;;;5077121;28;20090;-84
2022/07/14 01:44:14;;;;;;;2.28;2.08;;;;;;;;;;5094706;28;20143;-84
2022/07/14 01:46:42;;;;;;;1.90;1.73;;;;;;;;;;5077200;28;20055;-85
2022/07/14 01:49:09;;;;;;;2.17;1.85;;;;;;;;;;5076934;28;20075;-84
2022/07/14 01:51:36;;;;;;;1.60;1.60;;;;;;;;;;5094603;28;20076;-84
2022/07/14 01:54:07;;;;;;;1.55;1.45;;;;;;;;;;5094497;28;20090;-84
2022/07/14 01:56:39;;;;;;;3.75;1.80;;;;;;;;;;5076490;28;20146;-84
2022/07/14 01:59:06;;;;;;;2.28;1.60;;;;;;;;;;5076762;28;20071;-84
2022/07/14 02:01:40;;;;;;;3.13;1.70;;;;;;;;;;5076529;28;20170;-84
2022/07/14 02:04:15;;;;;;;3.28;2.00;;;;;;;;;;5076659;28;20040;-84
2022/07/14 02:06:47;;;;;;;4.28;2.22;;;;;;;;;;5094428;28;20130;-84
2022/07/14 02:09:14;;;;;;;1.85;1.75;;;;;;;;;;5076182;28;20504;-84
2022/07/14 02:14:28;;;;;;;2.10;1.80;;;;;;;;;;5094339;28;20048;-84
2022/07/14 02:16:55;;;;;;;1.90;1.80;;;;;;;;;;5093710;28;20139;-84
2022/07/14 02:19:24;;;;;;;1.98;1.88;;;;;;;;;;5075986;28;20135;-84
2022/07/14 02:21:51;;;;;;;4.10;1.90;;;;;;;;;;5076139;28;20052;-84
2022/07/14 02:24:20;;;;;;;3.15;1.90;;;;;;;;;;5093631;28;20079;-84
2022/07/14 02:26:50;;;;;;;2.30;1.60;;;;;;;;;;5076040;28;20044;-84
2022/07/14 02:29:17;;;;;;;3.75;1.92;;;;;;;;;;5075765;28;20424;-83
2022/07/14 02:31:46;;;;;;;4.55;2.00;;;;;;;;;;5075078;28;20051;-84
2022/07/14 02:34:14;;;;;;;2.33;1.90;;;;;;;;;;5075629;28;20063;-84
2022/07/14 02:36:41;;;;;;;1.95;1.85;;;;;;;;;;5093576;28;20083;-84
2022/07/14 02:39:09;;;;;;;2.03;1.92;;;;;;;;;;5093745;28;20040;-84
2022/07/14 02:41:36;;;;;;;4.07;2.20;;;;;;;;;;5092562;28;20052;-84
2022/07/14 02:44:03;;;;;;;1.98;1.88;;;;;;;;;;5093325;28;20078;-84
2022/07/14 02:46:30;;;;;;;4.80;2.30;;;;;;;;;;5075654;28;20047;-83
2022/07/14 02:48:58;;;;;;;2.60;2.20;;;;;;;;;;5075908;28;20056;-84
2022/07/14 02:51:25;;;;;;;2.95;2.72;;;;;;;;;;5075462;28;20080;-84
2022/07/14 02:53:52;;;;;;;2.20;2.10;;;;;;;;;;5075543;28;20082;-83
2022/07/14 02:56:19;;;;;;;2.95;2.47;;;;;;;;;;5075032;28;20130;-83
2022/07/14 02:58:47;;;;;;;3.78;2.53;;;;;;;;;;5075225;28;20106;-83
2022/07/14 03:01:14;;;;;;;2.05;1.92;;;;;;;;;;5075678;28;20098;-83
2022/07/14 03:03:41;;;;;;;2.42;1.90;;;;;;;;;;5093375;28;20052;-84
2022/07/14 03:06:13;;;;;;;2.50;2.30;;;;;;;;;;5093152;28;20128;-83
2022/07/14 03:08:40;;;;;;;2.83;2.45;;;;;;;;;;5075515;28;20097;-83
2022/07/14 03:11:07;;;;;;;2.17;1.98;;;;;;;;;;5074868;28;20044;-84
2022/07/14 03:13:36;;;;;;;2.00;1.90;;;;;;;;;;5075375;28;20433;-84
2022/07/14 03:16:04;;;;;;;3.35;2.17;;;;;;;;;;5092687;28;20142;-84
2022/07/14 03:18:31;;;;;;;6.75;2.15;;;;;;;;;;5093016;28;20044;-84
2022/07/14 03:20:58;;;;;;;3.88;2.33;;;;;;;;;;5093159;28;20047;-84
2022/07/14 03:23:25;;;;;;;2.55;2.40;;;;;;;;;;5074946;28;20127;-83
2022/07/14 03:25:52;;;;;;;2.88;2.70;;;;;;;;;;5074682;28;20051;-83
2022/07/14 03:28:20;;;;;;;3.03;2.08;;;;;;;;;;5074978;28;20048;-84
2022/07/14 03:30:47;;;;;;;2.00;1.90;;;;;;;;;;5075008;28;20147;-83
2022/07/14 03:33:14;;;;;;;2.25;2.15;;;;;;;;;;5092613;28;20135;-84
2022/07/14 03:35:41;;;;;;;2.38;2.28;;;;;;;;;;5092681;28;20412;-84
2022/07/14 03:38:08;;;;;;;2.50;2.40;;;;;;;;;;5074463;28;20130;-83
2022/07/14 03:40:55;;;;;;;3.20;2.20;;;;;;;;;;5077758;28;20554;-84
2022/07/14 03:43:23;;;;;;;2.25;2.15;;;;;;;;;;5092605;28;20092;-84
2022/07/14 03:45:50;;;;;;;3.50;2.17;;;;;;;;;;5074651;28;20052;-84
2022/07/14 03:48:17;;;;;;;5.30;2.45;;;;;;;;;;5092502;28;20056;-84
2022/07/14 03:50:44;;;;;;;2.67;2.20;;;;;;;;;;5092001;28;20083;-83
2022/07/14 03:53:11;;;;;;;3.15;2.47;;;;;;;;;;5074263;28;20083;-83
2022/07/14 03:55:39;;;;;;;2.42;2.25;;;;;;;;;;5092334;28;20076;-83
2022/07/14 03:58:06;;;;;;;2.60;2.13;;;;;;;;;;5092512;28;20510;-84
2022/07/14 04:00:33;;;;;;;2.90;2.10;;;;;;;;;;5074641;28;20119;-83
2022/07/14 04:03:01;;;;;;;2.90;2.40;;;;;;;;;;5074434;28;20044;-84
2022/07/14 04:05:28;;;;;;;2.35;2.20;;;;;;;;;;5092182;28;20052;-83
2022/07/14 04:07:55;;;;;;;3.95;2.45;;;;;;;;;;5074423;28;20131;-83
2022/07/14 04:10:23;;;;;;;2.35;2.20;;;;;;;;;;5074479;28;20468;-84
2022/07/14 04:12:50;;;;;;;2.80;2.50;;;;;;;;;;5092474;28;20144;-84
2022/07/14 04:15:18;;;;;;;2.72;2.53;;;;;;;;;;5074299;28;20473;-84
2022/07/14 04:17:45;;;;;;;2.40;2.30;;;;;;;;;;5091986;28;20079;-84
2022/07/14 04:20:12;;;;;;;2.92;2.20;;;;;;;;;;5074198;28;20123;-85
2022/07/14 04:22:39;;;;;;;13.50;6.15;;;;;;;;;;5074421;28;20477;-85
2022/07/14 04:25:09;;;;;;;5.80;4.90;;;;;;;;;;5074409;28;20087;-84
2022/07/14 04:27:36;;;;;;;12.13;10.45;;;;;;;;;;5092291;28;20147;-85
2022/07/14 04:30:03;;;;;;;11.00;6.22;;;;;;;;;;5074116;28;20084;-85
2022/07/14 04:32:31;;;;;;;17.55;12.50;;;;;;;;;;5091457;28;20580;-83
2022/07/14 04:34:58;;;;;;;8.52;7.72;;;;;;;;;;5091881;28;20052;-83
2022/07/14 04:37:26;;;;;;;8.15;6.55;;;;;;;;;;5073672;28;20182;-83
2022/07/14 04:39:56;;;;;;;14.10;6.95;;;;;;;;;;5091903;28;20076;-83
2022/07/14 04:42:24;;;;;;;10.68;6.32;;;;;;;;;;5091961;28;20044;-84
2022/07/14 04:44:52;;;;;;;6.55;5.80;;;;;;;;;;5073673;28;20072;-83
2022/07/14 04:47:19;;;;;;;6.38;5.78;;;;;;;;;;5091879;28;20139;-83
2022/07/14 04:52:32;;;;;;;6.53;4.40;;;;;;;;;;5091839;28;20052;-83
2022/07/14 04:54:59;;;;;;;6.03;5.43;;;;;;;;;;5074191;28;20048;-84
2022/07/14 04:57:27;;;;;;;7.38;4.97;;;;;;;;;;5091511;28;20495;-85
2022/07/14 04:59:59;;;;;;;5.85;4.30;;;;;;;;;;5075458;28;20055;-86
2022/07/14 05:02:27;;;;;;;7.50;3.85;;;;;;;;;;5074447;28;20048;-86
2022/07/14 05:04:54;;;;;;;7.82;4.25;;;;;;;;;;5094611;28;20046;-85
2022/07/14 05:07:21;;;;;;;11.43;5.43;;;;;;;;;;5095774;28;20091;-86
2022/07/14 05:09:48;;;;;;;6.35;5.07;;;;;;;;;;5077638;28;20067;-84
2022/07/14 05:12:17;;;;;;;9.18;4.65;;;;;;;;;;5077620;28;20101;-85
2022/07/14 05:14:45;;;;;;;5.38;4.40;;;;;;;;;;5077909;28;20141;-85
2022/07/14 05:17:13;;;;;;;9.68;4.70;;;;;;;;;;5077630;28;20079;-86
2022/07/14 05:19:46;;;;;;;5.03;4.60;;;;;;;;;;5078292;28;20055;-85
2022/07/14 05:22:14;;;;;;;7.43;5.78;;;;;;;;;;5077765;28;20429;-85
2022/07/14 05:24:41;;;;;;;6.68;5.65;;;;;;;;;;5077373;28;20492;-86
2022/07/14 05:27:09;;;;;;;9.60;8.60;;;;;;;;;;5077536;28;20495;-86
2022/07/14 05:29:37;;;;;;;21.90;6.32;;;;;;;;;;5077703;28;20090;-86
2022/07/14 05:32:04;;;;;;;28.15;5.93;;;;;;;;;;5095112;28;20445;-86
2022/07/14 05:34:32;;;;;;;6.30;5.45;;;;;;;;;;5077782;28;20086;-86
2022/07/14 05:36:59;;;;;;;5.15;4.40;;;;;;;;;;5095243;28;20099;-86
2022/07/14 05:39:26;;;;;;;7.05;4.75;;;;;;;;;;5076411;28;20055;-87
2022/07/14 05:41:54;;;;;;;24.33;6.45;;;;;;;;;;5077829;28;20135;-86
2022/07/14 05:44:21;;;;;;;20.38;6.22;;;;;;;;;;5077404;28;20076;-86
2022/07/14 05:46:48;;;;;;;7.95;5.05;;;;;;;;;;5095625;28;20075;-87
2022/07/14 05:49:15;;;;;;;9.98;5.35;;;;;;;;;;5077229;28;20052;-86
2022/07/14 05:51:49;;;;;;;6.10;5.32;;;;;;;;;;5078048;28;20056;-86
2022/07/14 05:54:17;;;;;;;7.22;5.28;;;;;;;;;;5095109;28;20075;-85
2022/07/14 05:56:44;;;;;;;5.05;4.55;;;;;;;;;;5077493;28;20515;-86
2022/07/14 05:59:11;;;;;;;5.10;4.55;;;;;;;;;;5077391;28;20097;-86
2022/07/14 06:01:58;;;;;;;8.07;5.13;;;;;;;;;;5079939;28;20048;-85
2022/07/14 06:04:25;;;;;;;8.32;5.22;;;;;;;;;;5077071;28;20377;-86
2022/07/14 06:06:53;;;;;;;5.18;4.50;;;;;;;;;;5077090;28;20132;-86
2022/07/14 06:09:21;;;;;;;5.18;4.68;;;;;;;;;;5076967;28;20052;-86
2022/07/14 06:11:48;;;;;;;7.10;5.05;;;;;;;;;;5076936;28;20044;-85
2022/07/14 06:14:16;;;;;;;7.30;5.82;;;;;;;;;;5093950;28;20075;-85
2022/07/14 06:16:43;;;;;;;7.40;4.90;;;;;;;;;;5094251;28;20090;-86
2022/07/14 06:19:11;;;;;;;6.38;5.35;;;;;;;;;;5076578;28;20609;-85
2022/07/14 06:21:43;;;;;;;5.63;4.70;;;;;;;;;;5077379;28;20048;-85
2022/07/14 06:24:12;;;;;;;5.88;5.28;;;;;;;;;;5076127;28;20420;-85
2022/07/14 06:26:40;;;;;;;9.85;5.30;;;;;;;;;;5094466;28;20048;-86
2022/07/14 06:29:07;;;;;;;5.90;5.18;;;;;;;;;;5076091;28;20076;-85
2022/07/14 06:31:36;;;;;;;9.07;5.00;;;;;;;;;;5094186;28;20068;-85
2022/07/14 06:34:05;;;;;;;6.45;4.57;;;;;;;;;;5094132;28;20052;-85
2022/07/14 06:36:33;;;;;;;13.40;5.03;;;;;;;;;;5076134;28;20080;-85
2022/07/14 06:39:00;;;;;;;10.05;5.15;;;;;;;;;;5094072;28;20047;-85
2022/07/14 06:41:27;;;;;;;4.78;4.20;;;;;;;;;;5075974;28;20040;-85
2022/07/14 06:43:55;;;;;;;6.85;4.43;;;;;;;;;;5075964;28;20457;-85
2022/07/14 06:46:22;;;;;;;9.70;4.80;;;;;;;;;;5093790;28;20520;-85
2022/07/14 06:48:49;;;;;;;9.55;4.60;;;;;;;;;;5075831;28;20515;-86
2022/07/14 06:51:16;;;;;;;6.22;4.65;;;;;;;;;;5093762;28;20091;-85
2022/07/14 06:53:43;;;;;;;10.13;4.55;;;;;;;;;;5093830;28;20087;-85
2022/07/14 06:56:10;;;;;;;8.35;4.35;;;;;;;;;;5093373;28;20102;-85
2022/07/14 06:58:38;;;;;;;7.75;4.28;;;;;;;;;;5093503;28;20084;-85
2022/07/14 07:01:05;;;;;;;6.63;3.63;;;;;;;;;;5075822;28;20135;-85
2022/07/14 07:03:33;;;;;;;3.58;3.20;;;;;;;;;;5093506;28;20138;-85
2022/07/14 07:08:46;;;;;;;3.90;3.50;;;;;;;;;;5093215;28;20083;-85
2022/07/14 07:11:13;;;;;;;4.95;3.33;;;;;;;;;;5093278;28;20083;-85
2022/07/14 07:13:40;;;;;;;5.25;3.65;;;;;;;;;;5075852;28;20079;-85
2022/07/14 07:16:08;;;;;;;6.10;3.65;;;;;;;;;;5092869;28;20488;-84
2022/07/14 07:18:36;;;;;;;3.65;3.35;;;;;;;;;;5093208;28;20070;-84
2022/07/14 07:21:06;;;;;;;5.55;3.67;;;;;;;;;;5092840;28;20052;-85
2022/07/14 07:23:34;;;;;;;5.88;3.70;;;;;;;;;;5093035;28;20044;-85
2022/07/14 07:26:01;;;;;;;3.53;3.15;;;;;;;;;;5092600;28;20072;-84
2022/07/14 07:28:28;;;;;;;6.15;3.17;;;;;;;;;;5075144;28;20079;-85
2022/07/14 07:30:55;;;;;;;7.15;2.50;;;;;;;;;;5093050;28;20055;-86
2022/07/14 07:33:22;;;;;;;8.60;3.17;;;;;;;;;;5075104;28;20466;-85
2022/07/14 07:35:50;;;;;;;4.10;2.97;;;;;;;;;;5075033;28;20139;-85
2022/07/14 07:38:17;;;;;;;3.20;2.38;;;;;;;;;;5092945;28;20139;-85
2022/07/14 07:40:47;;;;;;;2.45;2.25;;;;;;;;;;5093220;28;20075;-85
2022/07/14 07:43:14;;;;;;;8.85;2.78;;;;;;;;;;5075102;28;20079;-84
2022/07/14 07:45:42;;;;;;;2.90;2.33;;;;;;;;;;5075144;28;20048;-85
2022/07/14 07:48:09;;;;;;;3.08;2.35;;;;;;;;;;5074918;28;20086;-86
2022/07/14 07:50:36;;;;;;;3.88;2.45;;;;;;;;;;5074845;28;20080;-85
2022/07/14 07:53:04;;;;;;;2.60;2.40;;;;;;;;;;5074877;28;20075;-84
2022/07/14 07:55:31;;;;;;;2.65;2.05;;;;;;;;;;5075053;28;20131;-86
2022/07/14 07:57:59;;;;;;;3.05;2.00;;;;;;;;;;5075090;28;20118;-86
2022/07/14 08:00:27;;;;;;;3.80;1.90;;;;;;;;;;5092943;28;20040;-85
2022/07/14 08:02:54;;;;;;;3.45;1.75;;;;;;;;;;5074669;28;20535;-86
2022/07/14 08:05:23;;;;;;;3.05;2.38;;;;;;;;;;5074720;28;20044;-85
2022/07/14 08:08:11;;;;;;;3.38;2.40;;;;;;;;;;5092931;28;20055;-86
2022/07/14 08:10:38;;;;;;;3.42;1.92;;;;;;;;;;5074793;28;20097;-85
2022/07/14 08:13:06;;;;;;;4.72;2.13;;;;;;;;;;5092499;28;20504;-85
2022/07/14 08:15:34;;;;;;;2.60;1.95;;;;;;;;;;5092352;28;20044;-85
2022/07/14 08:18:01;;;;;;;2.90;2.45;;;;;;;;;;5092345;28;20083;-86
2022/07/14 08:20:29;;;;;;;2.75;1.83;;;;;;;;;;5092690;28;20044;-85
2022/07/14 08:22:57;;;;;;;2.83;2.00;;;;;;;;;;5074718;28;20048;-85
2022/07/14 08:25:24;;;;;;;2.20;2.00;;;;;;;;;;5074607;28;20442;-85
2022/07/14 08:27:52;;;;;;;2.42;2.17;;;;;;;;;;5074350;28;20204;-85
2022/07/14 08:30:20;;;;;;;2.60;2.40;;;;;;;;;;5074490;28;20056;-85
2022/07/14 08:32:51;;;;;;;4.15;2.53;;;;;;;;;;5091884;28;20128;-85
2022/07/14 08:35:20;;;;;;;3.38;2.13;;;;;;;;;;5092398;28;20044;-85
2022/07/14 08:37:47;;;;;;;4.50;2.10;;;;;;;;;;5075459;28;20080;-86
2022/07/14 08:40:16;;;;;;;3.63;2.10;;;;;;;;;;5078017;28;20097;-86
2022/07/14 08:42:44;;;;;;;4.43;2.15;;;;;;;;;;5096247;28;20097;-86
2022/07/14 08:45:13;;;;;;;4.10;2.33;;;;;;;;;;5096041;28;20485;-85
2022/07/14 08:47:40;;;;;;;2.45;2.25;;;;;;;;;;5078272;28;20083;-85
2022/07/14 08:50:09;;;;;;;2.53;2.33;;;;;;;;;;5078015;28;20052;-84
2022/07/14 08:52:37;;;;;;;4.95;2.25;;;;;;;;;;5077722;28;20079;-84
2022/07/14 08:55:08;;;;;;;2.33;2.03;;;;;;;;;;5095876;28;20098;-84
2022/07/14 08:57:36;;;;;;;5.18;2.10;;;;;;;;;;5096026;28;20508;-85
2022/07/14 09:00:09;;;;;;;4.40;2.20;;;;;;;;;;5096056;28;20132;-85
2022/07/14 09:02:37;;;;;;;3.92;2.25;;;;;;;;;;5078088;28;20048;-86
2022/07/14 09:05:24;;;;;;;2.97;2.28;;;;;;;;;;5080983;28;20048;-85
2022/07/14 09:07:58;;;;;;;6.57;2.40;;;;;;;;;;5078190;28;20074;-85
2022/07/14 09:10:27;;;;;;;4.13;2.53;;;;;;;;;;5078211;28;20101;-85
2022/07/14 09:13:11;;;;;;;2.83;2.03;;;;;;;;;;5078090;28;20131;-86
2022/07/14 09:15:47;;;;;;;4.03;1.95;;;;;;;;;;5077814;28;20142;-85
2022/07/14 09:18:21;;;;;;;1.83;1.73;;;;;;;;;;5095411;28;20052;-85
2022/07/14 09:20:49;;;;;;;3.70;2.17;;;;;;;;;;5077544;28;20507;-85
2022/07/14 09:23:25;;;;;;;4.82;2.28;;;;;;;;;;5077337;28;20101;-86
2022/07/14 09:26:09;;;;;;;2.22;2.13;;;;;;;;;;5095047;28;20079;-87
2022/07/14 09:28:40;;;;;;;4.47;2.00;;;;;;;;;;5077634;28;20052;-85
2022/07/14 09:31:24;;;;;;;2.80;2.25;;;;;;;;;;5076616;28;20135;-88
2022/07/14 09:33:52;;;;;;;3.00;1.98;;;;;;;;;;5077458;28;20117;-85
2022/07/14 09:36:22;;;;;;;1.95;1.77;;;;;;;;;;5094961;28;20048;-86
2022/07/14 09:38:51;;;;;;;2.65;1.85;;;;;;;;;;5076714;28;20055;-86
2022/07/14 09:41:19;;;;;;;2.95;2.08;;;;;;;;;;5076895;28;20080;-85
2022/07/14 09:44:06;;;;;;;4.00;2.20;;;;;;;;;;5076915;28;20488;-86
2022/07/14 09:46:47;;;;;;;3.40;2.00;;;;;;;;;;5095083;28;20044;-85
2022/07/14 09:49:15;;;;;;;2.78;2.45;;;;;;;;;;5076302;28;20105;-86
2022/07/14 09:51:54;;;;;;;3.53;2.47;;;;;;;;;;5077207;28;20052;-85
2022/07/14 09:54:40;;;;;;;3.92;2.13;;;;;;;;;;5076915;28;20121;-85
2022/07/14 09:57:13;;;;;;;3.28;2.15;;;;;;;;;;5076818;28;20086;-85
2022/07/14 09:59:51;;;;;;;5.53;2.10;;;;;;;;;;5076739;28;20048;-86
2022/07/14 10:02:22;;;;;;;2.55;2.20;;;;;;;;;;5095052;28;20059;-85
2022/07/14 10:04:50;;;;;;;2.50;2.30;;;;;;;;;;5076831;28;20542;-84
2022/07/14 10:07:18;;;;;;;4.13;2.42;;;;;;;;;;5094889;28;20488;-86
2022/07/14 10:09:53;;;;;;;3.05;2.35;;;;;;;;;;5094579;28;20484;-87
2022/07/14 10:12:21;;;;;;;2.95;1.98;;;;;;;;;;5076766;28;20044;-86
2022/07/14 10:14:49;;;;;;;2.90;2.00;;;;;;;;;;5076395;28;20130;-86
2022/07/14 10:17:17;;;;;;;5.63;2.28;;;;;;;;;;5076255;28;20094;-83
2022/07/14 10:19:45;;;;;;;5.55;2.05;;;;;;;;;;5094336;28;20131;-86
2022/07/14 10:22:14;;;;;;;2.55;2.35;;;;;;;;;;5076231;28;20075;-85
2022/07/14 10:24:45;;;;;;;4.30;2.30;;;;;;;;;;5076316;28;20059;-86
2022/07/14 10:27:12;;;;;;;4.00;2.38;;;;;;;;;;5076757;28;20131;-87
2022/07/14 10:29:43;;;;;;;1.98;1.88;;;;;;;;;;5076306;28;20052;-85
2022/07/14 10:32:15;;;;;;;2.85;2.25;;;;;;;;;;5075325;28;20051;-86
2022/07/14 10:35:02;;;;;;;3.25;2.10;;;;;;;;;;5076009;28;20055;-84
2022/07/14 10:38:01;;;;;;;3.67;2.28;;;;;;;;;;5076012;28;20147;-86
2022/07/14 10:40:35;;;;;;;5.03;2.30;;;;;;;;;;5043860;28;20044;-85
2022/07/14 10:43:05;;;;;;;2.35;2.15;;;;;;;;;;5094003;28;20095;-85
2022/07/14 10:45:48;;;;;;;4.75;2.42;;;;;;;;;;5076395;28;20133;-86
2022/07/14 10:48:27;;;;;;;4.85;2.30;;;;;;;;;;5093691;28;20427;-86
2022/07/14 10:51:15;;;;;;;2.78;2.30;;;;;;;;;;5093721;28;20480;-85
2022/07/14 10:54:01;;;;;;;4.80;2.38;;;;;;;;;;5075795;28;20087;-86
2022/07/14 10:56:49;;;;;;;3.78;2.78;;;;;;;;;;5078426;28;20055;-84
2022/07/14 10:59:28;;;;;;;4.07;2.40;;;;;;;;;;5093601;28;20454;-85
2022/07/14 11:02:13;;;;;;;5.45;2.75;;;;;;;;;;5092608;28;20056;-85
2022/07/14 11:05:13;;;;;;;4.75;2.20;;;;;;;;;;5093618;28;20056;-86
2022/07/14 11:07:59;;;;;;;2.88;2.13;;;;;;;;;;5075781;28;20052;-86
2022/07/14 11:10:26;;;;;;;2.40;2.08;;;;;;;;;;5074996;28;20040;-85
2022/07/14 11:13:05;;;;;;;3.10;2.20;;;;;;;;;;5093203;28;20397;-86
2022/07/14 11:15:40;;;;;;;2.88;2.20;;;;;;;;;;5075620;28;20044;-85
2022/07/14 11:18:24;;;;;;;3.63;2.40;;;;;;;;;;5093172;28;20558;-86
2022/07/14 11:20:53;;;;;;;2.42;2.22;;;;;;;;;;5075305;28;20044;-85
2022/07/14 11:23:22;;;;;;;3.28;2.90;;;;;;;;;;5075367;28;20079;-86
2022/07/14 11:25:53;;;;;;;3.45;2.28;;;;;;;;;;5075035;28;20448;-86
2022/07/14 11:28:32;;;;;;;7.38;2.40;;;;;;;;;;5075437;28;20504;-84
2022/07/14 11:31:08;;;;;;;7.28;2.70;;;;;;;;;;5074351;28;20083;-84
2022/07/14 11:33:35;;;;;;;2.92;2.40;;;;;;;;;;5092832;28;20055;-85
2022/07/14 11:36:19;;;;;;;3.60;2.20;;;;;;;;;;5093007;28;20079;-88
2022/07/14 11:39:19;;;;;;;2.80;2.10;;;;;;;;;;5077754;28;20138;-84
2022/07/14 11:41:49;;;;;;;3.03;2.00;;;;;;;;;;5074803;28;20040;-85
2022/07/14 11:44:40;;;;;;;4.55;2.28;;;;;;;;;;5074694;28;20142;-85
2022/07/14 11:47:44;;;;;;;2.35;2.20;;;;;;;;;;5074683;28;20492;-85
2022/07/14 11:50:11;;;;;;;2.80;2.25;;;;;;;;;;5030359;28;20153;-84
2022/07/14 11:52:40;;;;;;;1.95;1.85;;;;;;;;;;5067378;28;20056;-86
2022/07/14 11:55:10;;;;;;;4.38;2.13;;;;;;;;;;5074664;28;20121;-86
2022/07/14 11:57:37;;;;;;;2.78;2.55;;;;;;;;;;5093073;28;20105;-86
2022/07/14 12:00:08;;;;;;;4.18;2.45;;;;;;;;;;5074715;28;20079;-85
2022/07/14 12:02:39;;;;;;;2.33;2.13;;;;;;;;;;5074634;28;20095;-85
2022/07/14 12:05:08;;;;;;;4.80;2.83;;;;;;;;;;5074684;28;20044;-85
2022/07/14 12:07:46;;;;;;;2.20;1.88;;;;;;;;;;5074629;28;20420;-88
2022/07/14 12:10:14;;;;;;;2.60;2.03;;;;;;;;;;5074818;28;20044;-85
2022/07/14 12:12:47;;;;;;;3.22;2.20;;;;;;;;;;5075196;28;20080;-86
2022/07/14 12:15:24;;;;;;;3.65;1.80;;;;;;;;;;5078477;28;20052;-85
2022/07/14 12:17:53;;;;;;;5.53;2.13;;;;;;;;;;5096665;28;20091;-87
2022/07/14 12:20:21;;;;;;;2.33;2.13;;;;;;;;;;5079359;28;20044;-85
2022/07/14 12:22:53;;;;;;;2.88;2.00;;;;;;;;;;5096701;28;20082;-85
2022/07/14 12:25:26;;;;;;;3.30;2.45;;;;;;;;;;5096177;28;20044;-84
2022/07/14 12:27:54;;;;;;;2.35;2.10;;;;;;;;;;5078492;28;20617;-85
2022/07/14 12:30:21;;;;;;;2.45;1.60;;;;;;;;;;5096367;28;20086;-84
2022/07/14 12:32:52;;;;;;;3.53;1.90;;;;;;;;;;5078113;28;20090;-84
2022/07/14 12:35:21;;;;;;;2.13;1.92;;;;;;;;;;5078324;28;20141;-86
2022/07/14 12:37:52;;;;;;;3.95;1.98;;;;;;;;;;5078329;28;20412;-85
2022/07/14 12:40:40;;;;;;;3.75;2.13;;;;;;;;;;5081020;28;20044;-85
2022/07/14 12:43:08;;;;;;;3.17;2.05;;;;;;;;;;5078124;28;20146;-86
2022/07/14 12:45:54;;;;;;;2.30;1.95;;;;;;;;;;5078260;28;20398;-84
2022/07/14 12:48:21;;;;;;;4.65;2.38;;;;;;;;;;5077942;28;20055;-85
2022/07/14 12:50:49;;;;;;;13.93;2.50;;;;;;;;;;5078013;28;20062;-87
2022/07/14 12:53:18;;;;;;;5.45;1.13;;;;;;;;;;5078119;28;20075;-88
2022/07/14 12:55:45;;;;;;;3.22;1.38;;;;;;;;;;5096644;28;20072;-86
2022/07/14 12:58:13;;;;;;;3.28;1.10;;;;;;;;;;5078329;28;20130;-86
2022/07/14 13:00:41;;;;;;;1.73;1.23;;;;;;;;;;5078168;28;20044;-88
2022/07/14 13:03:11;;;;;;;3.70;1.17;;;;;;;;;;5096005;28;20086;-86
2022/07/14 13:05:44;;;;;;;1.35;1.20;;;;;;;;;;5078658;28;20083;-87
2022/07/14 13:08:30;;;;;;;1.10;0.98;;;;;;;;;;5095766;28;20079;-85
2022/07/14 13:10:59;;;;;;;2.08;1.90;;;;;;;;;;5096177;28;20459;-87
2022/07/14 13:13:30;;;;;;;3.83;1.80;;;;;;;;;;5077870;28;20076;-85
2022/07/14 13:16:33;;;;;;;3.38;2.05;;;;;;;;;;5078018;28;20078;-86
2022/07/14 13:19:04;;;;;;;4.18;1.90;;;;;;;;;;5033467;28;20045;-87
2022/07/14 13:21:44;;;;;;;4.70;2.00;;;;;;;;;;5071828;28;20044;-93
2022/07/14 13:24:15;;;;;;;1.80;1.70;;;;;;;;;;5076856;28;20082;-86
2022/07/14 13:26:43;;;;;;;2.13;1.70;;;;;;;;;;5095361;28;20072;-85
2022/07/14 13:29:10;;;;;;;1.88;1.77;;;;;;;;;;5077836;28;20559;-86
2022/07/14 13:31:37;;;;;;;1.73;1.70;;;;;;;;;;5078239;28;20044;-86
2022/07/14 13:34:05;;;;;;;2.35;1.83;;;;;;;;;;5095199;28;20102;-85
2022/07/14 13:36:32;;;;;;;2.95;2.00;;;;;;;;;;5095210;28;20071;-87
2022/07/14 13:38:59;;;;;;;3.25;2.15;;;;;;;;;;5077673;28;20101;-89
2022/07/14 13:41:26;;;;;;;1.60;1.50;;;;;;;;;;5077736;28;20132;-86
2022/07/14 13:43:57;;;;;;;3.80;1.90;;;;;;;;;;5077327;28;20079;-88
2022/07/14 13:46:25;;;;;;;2.38;1.55;;;;;;;;;;5095163;28;20044;-87
2022/07/14 13:48:52;;;;;;;3.17;1.95;;;;;;;;;;5076927;28;20527;-86
2022/07/14 13:54:26;;;;;;;3.55;1.88;;;;;;;;;;5095371;28;20098;-88
2022/07/14 13:56:53;;;;;;;4.30;2.10;;;;;;;;;;5077247;28;20136;-86
2022/07/14 13:59:21;;;;;;;3.63;2.10;;;;;;;;;;5094976;28;20481;-89
2022/07/14 14:01:48;;;;;;;2.35;2.00;;;;;;;;;;5077277;28;20079;-87
2022/07/14 14:04:15;;;;;;;1.95;1.80;;;;;;;;;;5077211;28;20059;-88
2022/07/14 14:06:49;;;;;;;5.18;2.50;;;;;;;;;;5078471;28;20044;-89
2022/07/14 14:09:17;;;;;;;2.60;2.00;;;;;;;;;;5077261;28;20106;-87
2022/07/14 14:11:45;;;;;;;2.00;1.80;;;;;;;;;;5094937;28;20075;-86
2022/07/14 14:14:13;;;;;;;2.60;2.40;;;;;;;;;;5076956;28;20064;-86
2022/07/14 14:16:41;;;;;;;4.47;2.33;;;;;;;;;;5076983;28;20101;-88
2022/07/14 14:19:18;;;;;;;3.08;2.50;;;;;;;;;;5077977;28;20071;-87
2022/07/14 14:21:48;;;;;;;2.95;2.47;;;;;;;;;;5077218;28;20048;-90
2022/07/14 14:24:16;;;;;;;3.22;2.00;;;;;;;;;;5076689;28;20056;-87
2022/07/14 14:26:44;;;;;;;7.07;2.50;;;;;;;;;;5077056;28;20131;-86
2022/07/14 14:29:12;;;;;;;2.53;2.13;;;;;;;;;;5076570;28;20074;-84
2022/07/14 14:31:42;;;;;;;4.70;2.88;;;;;;;;;;5094164;28;20048;-88
2022/07/14 14:34:09;;;;;;;11.32;3.47;;;;;;;;;;5076559;28;20118;-85
2022/07/14 14:36:36;;;;;;;4.75;2.80;;;;;;;;;;5076465;28;20083;-87
2022/07/14 14:39:04;;;;;;;4.50;2.83;;;;;;;;;;5076585;28;20132;-87
2022/07/14 14:41:31;;;;;;;2.78;2.50;;;;;;;;;;5076548;28;20044;-85
2022/07/14 14:43:58;;;;;;;5.43;2.83;;;;;;;;;;5076551;28;20114;-87
2022/07/14 14:46:26;;;;;;;7.47;3.78;;;;;;;;;;5094376;28;20094;-85
2022/07/14 14:48:55;;;;;;;10.35;3.65;;;;;;;;;;5076323;28;20093;-85
2022/07/14 14:51:22;;;;;;;7.78;3.60;;;;;;;;;;5075923;28;20055;-86
2022/07/14 14:53:49;;;;;;;4.70;3.33;;;;;;;;;;5076223;28;20075;-87
2022/07/14 14:56:17;;;;;;;4.40;2.90;;;;;;;;;;5076291;28;20044;-87
2022/07/14 14:58:44;;;;;;;5.80;2.90;;;;;;;;;;5076209;28;20097;-89
2022/07/14 15:01:11;;;;;;;4.32;3.50;;;;;;;;;;5076222;28;20075;-87
2022/07/14 15:03:39;;;;;;;4.93;2.85;;;;;;;;;;5076115;28;20569;-87
2022/07/14 15:06:15;;;;;;;4.90;2.65;;;;;;;;;;5077325;28;20126;-85
2022/07/14 15:08:44;;;;;;;3.28;2.90;;;;;;;;;;5093653;28;20070;-85
2022/07/14 15:11:12;;;;;;;2.97;2.70;;;;;;;;;;5075734;28;20470;-84